Time;durP1;ratioP1;P1;durP2;ratioP2;P2;SDS_P1;SDS_P2;PMS_P1;PMS_P2;Temp;Humidity;BMP_temperature;BMP_pressure;BME280_temperature;BME280_humidity;BME280_pressure;Samples;Min_cycle;Max_cycle;Signal;HPM_P1;HPM_P2
2023/03/10 00:01:24;;;;;;;17.60;9.32;;;1.20;99.90;;;;;;5069904;28;20505;-65
2023/03/10 00:03:51;;;;;;;15.95;8.68;;;1.20;99.90;;;;;;5067366;28;20048;-65
2023/03/10 00:06:20;;;;;;;17.17;8.82;;;1.10;99.90;;;;;;5073206;28;20040;-65
2023/03/10 00:08:45;;;;;;;14.25;8.07;;;1.10;99.90;;;;;;5072055;28;20107;-65
2023/03/10 00:11:11;;;;;;;16.15;8.02;;;1.20;99.90;;;;;;5049734;28;20240;-66
2023/03/10 00:13:37;;;;;;;16.35;8.43;;;1.10;99.90;;;;;;5063477;28;20047;-66
2023/03/10 00:16:04;;;;;;;14.48;7.47;;;1.10;99.90;;;;;;5071439;28;20037;-66
2023/03/10 00:18:29;;;;;;;14.23;7.05;;;1.10;99.90;;;;;;5054154;28;20460;-66
2023/03/10 00:20:55;;;;;;;17.10;9.02;;;1.20;99.90;;;;;;5063317;28;20040;-66
2023/03/10 00:23:21;;;;;;;10.68;6.72;;;1.20;99.90;;;;;;5050824;28;20037;-66
2023/03/10 00:25:58;;;;;;;10.55;6.00;;;1.10;99.90;;;;;;5070603;28;20044;-66
2023/03/10 00:28:25;;;;;;;15.30;7.90;;;1.20;99.90;;;;;;5072741;28;20047;-66
2023/03/10 00:31:05;;;;;;;12.60;7.18;;;1.10;99.90;;;;;;5067280;28;20127;-66
2023/03/10 00:33:32;;;;;;;15.18;8.32;;;1.10;99.90;;;;;;5067730;28;20052;-66
2023/03/10 00:36:18;;;;;;;13.88;7.47;;;1.10;99.90;;;;;;5059462;28;20072;-66
2023/03/10 00:38:47;;;;;;;12.20;6.95;;;1.10;99.90;;;;;;5063717;28;20755;-66
2023/03/10 00:41:16;;;;;;;15.30;7.57;;;1.10;99.90;;;;;;5052262;28;20044;-65
2023/03/10 00:43:48;;;;;;;14.70;7.07;;;1.10;99.90;;;;;;4973496;28;20335;-66
2023/03/10 00:46:24;;;;;;;12.77;7.30;;;1.10;99.90;;;;;;4920982;28;20320;-65
2023/03/10 00:49:03;;;;;;;14.20;7.00;;;1.10;99.90;;;;;;4924312;28;20413;-65
2023/03/10 00:51:50;;;;;;;12.82;7.40;;;1.10;99.90;;;;;;4941584;28;20361;-66
2023/03/10 00:54:28;;;;;;;15.10;8.07;;;1.20;99.90;;;;;;4904691;28;20488;-65
2023/03/10 00:57:07;;;;;;;10.48;6.20;;;1.10;99.90;;;;;;4928241;28;20330;-66
2023/03/10 00:59:46;;;;;;;13.55;6.97;;;1.10;99.90;;;;;;4925489;28;20579;-66
2023/03/10 01:02:17;;;;;;;13.60;7.32;;;1.10;99.90;;;;;;4909360;28;20343;-65
2023/03/10 01:05:08;;;;;;;12.80;7.43;;;1.10;99.90;;;;;;4939762;28;20317;-66
2023/03/10 01:07:37;;;;;;;16.30;7.78;;;1.20;99.90;;;;;;4908914;28;20393;-66
2023/03/10 01:10:06;;;;;;;;;;;1.10;99.90;;;;;;4996970;28;20132;-65
2023/03/10 01:12:32;;;;;;;15.90;8.23;;;1.10;99.90;;;;;;5048979;28;20089;-65
2023/03/10 01:14:57;;;;;;;14.52;7.90;;;1.10;99.90;;;;;;5055477;28;20028;-65
2023/03/10 01:17:23;;;;;;;14.40;7.97;;;1.10;99.90;;;;;;5068930;28;20029;-66
2023/03/10 01:19:48;;;;;;;12.65;7.07;;;1.10;99.90;;;;;;5046130;28;20094;-65
2023/03/10 01:22:14;;;;;;;15.95;8.50;;;1.10;99.90;;;;;;5068799;28;20150;-65
2023/03/10 01:24:39;;;;;;;14.95;8.10;;;1.20;99.90;;;;;;5068674;28;20033;-65
2023/03/10 01:27:05;;;;;;;10.77;6.28;;;1.10;99.90;;;;;;5062921;28;20037;-65
2023/03/10 01:29:30;;;;;;;12.55;7.07;;;1.10;99.90;;;;;;5065017;28;20043;-66
2023/03/10 01:31:56;;;;;;;14.82;7.65;;;1.10;99.90;;;;;;5069550;28;20048;-65
2023/03/10 01:34:21;;;;;;;14.82;6.68;;;1.20;99.90;;;;;;5066611;28;20037;-66
2023/03/10 01:36:47;;;;;;;17.20;7.88;;;1.20;99.90;;;;;;5070674;28;20044;-66
2023/03/10 01:39:12;;;;;;;16.77;9.40;;;1.10;99.90;;;;;;5069281;28;20082;-65
2023/03/10 01:41:39;;;;;;;14.95;8.13;;;1.10;99.90;;;;;;5070193;28;20108;-66
2023/03/10 01:44:11;;;;;;;13.23;7.55;;;1.10;99.90;;;;;;5068502;28;20032;-65
2023/03/10 01:46:37;;;;;;;13.48;7.18;;;1.10;99.90;;;;;;5071030;28;20041;-65
2023/03/10 01:49:11;;;;;;;17.10;8.32;;;1.10;99.90;;;;;;5065634;28;20036;-65
2023/03/10 01:51:39;;;;;;;16.23;8.18;;;1.10;99.90;;;;;;5069227;28;20036;-66
2023/03/10 01:54:13;;;;;;;14.95;8.23;;;1.20;99.90;;;;;;5070919;28;20024;-66
2023/03/10 01:56:40;;;;;;;11.35;7.38;;;1.10;99.90;;;;;;5068228;28;20115;-65
2023/03/10 01:59:06;;;;;;;16.77;8.75;;;1.10;99.90;;;;;;5062455;28;20043;-65
2023/03/10 02:01:32;;;;;;;15.15;8.25;;;1.20;99.90;;;;;;5069803;28;20525;-65
2023/03/10 02:04:05;;;;;;;13.52;8.18;;;1.20;99.90;;;;;;5066061;28;20061;-65
2023/03/10 02:06:33;;;;;;;15.20;8.20;;;1.10;99.90;;;;;;5070754;28;20040;-65
2023/03/10 02:09:02;;;;;;;15.95;9.57;;;1.10;99.90;;;;;;5071032;28;20036;-65
2023/03/10 02:11:28;;;;;;;13.75;7.15;;;1.10;99.90;;;;;;5070735;28;20032;-65
2023/03/10 02:13:54;;;;;;;15.45;7.65;;;1.10;99.90;;;;;;5068881;28;20094;-65
2023/03/10 02:16:21;;;;;;;13.65;7.32;;;1.10;99.90;;;;;;5070398;28;20040;-65
2023/03/10 02:18:48;;;;;;;12.90;7.10;;;1.10;99.90;;;;;;5067368;28;20119;-65
2023/03/10 02:21:25;;;;;;;15.13;8.20;;;1.10;99.90;;;;;;5070600;28;20020;-65
2023/03/10 02:24:20;;;;;;;14.15;7.25;;;1.10;99.90;;;;;;5070682;28;20052;-65
2023/03/10 02:27:15;;;;;;;13.52;7.18;;;1.10;99.90;;;;;;5062009;28;20501;-65
2023/03/10 02:29:45;;;;;;;14.07;7.68;;;1.10;99.90;;;;;;5067906;28;20044;-65
2023/03/10 02:32:12;;;;;;;14.15;6.95;;;1.10;99.90;;;;;;5065506;28;20042;-65
2023/03/10 02:34:38;;;;;;;12.82;7.38;;;1.00;99.90;;;;;;5068714;28;20107;-65
2023/03/10 02:37:04;;;;;;;11.40;7.22;;;1.10;99.90;;;;;;5068336;28;20124;-65
2023/03/10 02:39:29;;;;;;;14.10;7.53;;;1.00;99.90;;;;;;5070206;28;20459;-65
2023/03/10 02:41:55;;;;;;;9.40;6.40;;;1.00;99.90;;;;;;5069394;28;20418;-66
2023/03/10 02:44:23;;;;;;;10.27;5.97;;;1.10;99.90;;;;;;5063653;28;20457;-65
2023/03/10 02:46:49;;;;;;;14.15;6.85;;;1.00;99.90;;;;;;5065075;28;20032;-65
2023/03/10 02:49:16;;;;;;;11.68;6.40;;;1.00;99.90;;;;;;5070775;28;20033;-65
2023/03/10 02:51:45;;;;;;;11.57;6.68;;;1.00;99.90;;;;;;5072281;28;20029;-65
2023/03/10 02:54:11;;;;;;;11.70;6.78;;;1.00;99.90;;;;;;5073747;28;20036;-66
2023/03/10 02:56:37;;;;;;;11.50;6.78;;;1.00;99.90;;;;;;5065677;28;20033;-66
2023/03/10 02:59:04;;;;;;;13.27;6.85;;;1.00;99.90;;;;;;5068336;28;20394;-65
2023/03/10 03:01:30;;;;;;;11.63;6.53;;;1.10;99.90;;;;;;5069376;28;20048;-65
2023/03/10 03:03:56;;;;;;;10.98;5.55;;;1.10;99.90;;;;;;5071147;28;20406;-65
2023/03/10 03:06:22;;;;;;;9.13;5.68;;;1.00;99.90;;;;;;5071996;28;20417;-66
2023/03/10 03:08:48;;;;;;;9.68;5.88;;;1.00;99.90;;;;;;5072368;28;20043;-65
2023/03/10 03:11:14;;;;;;;10.88;5.80;;;1.10;99.90;;;;;;5072384;28;20028;-65
2023/03/10 03:13:40;;;;;;;8.57;5.32;;;1.00;99.90;;;;;;5055581;28;20123;-65
2023/03/10 03:16:07;;;;;;;10.65;6.70;;;1.00;99.90;;;;;;5050065;28;20166;-65
2023/03/10 03:18:33;;;;;;;10.93;6.88;;;1.00;99.90;;;;;;5038103;28;20049;-66
2023/03/10 03:21:03;;;;;;;10.68;6.68;;;1.10;99.90;;;;;;5049290;28;20410;-66
2023/03/10 03:23:29;;;;;;;12.82;7.55;;;1.10;99.90;;;;;;5073419;28;20048;-65
2023/03/10 03:25:54;;;;;;;12.02;6.15;;;1.10;99.90;;;;;;5053001;28;20048;-66
2023/03/10 03:28:20;;;;;;;14.32;6.78;;;1.00;99.90;;;;;;5066366;28;20040;-66
2023/03/10 03:30:45;;;;;;;12.13;6.97;;;1.10;99.90;;;;;;5071759;28;20037;-66
2023/03/10 03:33:11;;;;;;;11.20;6.93;;;1.00;99.90;;;;;;5072125;28;20040;-66
2023/03/10 03:35:37;;;;;;;14.95;8.10;;;1.10;99.90;;;;;;5071529;28;20080;-66
2023/03/10 03:38:04;;;;;;;12.85;7.38;;;1.10;99.90;;;;;;5072851;28;20690;-66
2023/03/10 03:40:34;;;;;;;17.50;9.55;;;1.10;99.90;;;;;;5071455;28;20032;-66
2023/03/10 03:43:00;;;;;;;14.80;7.82;;;1.10;99.90;;;;;;5049077;28;20041;-66
2023/03/10 03:45:27;;;;;;;17.38;8.63;;;1.10;99.90;;;;;;5066501;28;20036;-66
2023/03/10 03:47:53;;;;;;;18.13;9.25;;;1.10;99.90;;;;;;5071789;28;20410;-66
2023/03/10 03:50:20;;;;;;;17.25;9.07;;;1.10;99.90;;;;;;5068315;28;20033;-66
2023/03/10 03:52:46;;;;;;;16.80;9.90;;;1.10;99.90;;;;;;5071422;28;20070;-66
2023/03/10 03:55:13;;;;;;;17.10;8.40;;;1.10;99.90;;;;;;5072755;28;21916;-66
2023/03/10 03:57:39;;;;;;;18.63;9.88;;;1.10;99.90;;;;;;5063742;28;20414;-66
2023/03/10 04:00:07;;;;;;;16.75;8.57;;;1.10;99.90;;;;;;5071970;28;20038;-66
2023/03/10 04:02:33;;;;;;;18.45;10.25;;;1.10;99.90;;;;;;5069416;28;20376;-66
2023/03/10 04:04:59;;;;;;;20.17;9.20;;;1.10;99.90;;;;;;5054200;28;20552;-66
2023/03/10 04:07:25;;;;;;;19.88;10.05;;;1.10;99.90;;;;;;5071537;28;20115;-66
2023/03/10 04:09:51;;;;;;;18.42;9.82;;;1.10;99.90;;;;;;5072334;28;20489;-66
2023/03/10 04:12:16;;;;;;;16.75;9.20;;;1.10;99.90;;;;;;5064083;28;20040;-66
2023/03/10 04:14:42;;;;;;;20.75;9.98;;;1.10;99.90;;;;;;5055191;28;20048;-66
2023/03/10 04:17:07;;;;;;;24.30;10.55;;;1.10;99.90;;;;;;5070882;28;20037;-67
2023/03/10 04:19:33;;;;;;;22.48;10.38;;;1.10;99.90;;;;;;5068688;28;20082;-66
2023/03/10 04:21:59;;;;;;;16.20;8.35;;;1.10;99.90;;;;;;5071580;28;20024;-67
2023/03/10 04:24:24;;;;;;;16.02;9.05;;;1.10;99.90;;;;;;5071103;28;20070;-66
2023/03/10 04:26:50;;;;;;;18.60;9.00;;;1.10;99.90;;;;;;5067558;28;20036;-67
2023/03/10 04:29:16;;;;;;;16.55;8.18;;;1.10;99.90;;;;;;5052913;28;20040;-67
2023/03/10 04:31:41;;;;;;;18.73;9.00;;;1.10;99.90;;;;;;5071362;28;20040;-67
2023/03/10 04:34:07;;;;;;;16.45;9.25;;;1.10;99.90;;;;;;5070263;28;20038;-67
2023/03/10 04:36:32;;;;;;;15.18;7.60;;;1.10;99.90;;;;;;5071294;28;20090;-67
2023/03/10 04:38:58;;;;;;;16.13;8.38;;;1.10;99.90;;;;;;5071568;28;20360;-67
2023/03/10 04:41:24;;;;;;;16.55;8.43;;;1.10;99.90;;;;;;5070943;28;20098;-67
2023/03/10 04:43:50;;;;;;;14.70;7.32;;;1.10;99.90;;;;;;5069438;28;20425;-67
2023/03/10 04:46:16;;;;;;;13.25;7.35;;;1.10;99.90;;;;;;5064501;28;20100;-67
2023/03/10 04:48:42;;;;;;;12.75;7.65;;;1.10;99.90;;;;;;5070259;22;20043;-64
2023/03/10 04:51:11;;;;;;;13.80;7.60;;;1.10;99.90;;;;;;5085198;28;20532;-63
2023/03/10 04:53:37;;;;;;;13.68;6.70;;;1.10;99.90;;;;;;5072082;28;20051;-64
2023/03/10 04:56:05;;;;;;;11.40;5.43;;;1.10;99.90;;;;;;5083090;28;20035;-64
2023/03/10 04:58:31;;;;;;;11.23;6.65;;;1.10;99.90;;;;;;5071912;28;20047;-64
2023/03/10 05:00:57;;;;;;;10.63;5.40;;;1.10;99.90;;;;;;5048536;28;20071;-64
2023/03/10 05:03:23;;;;;;;11.90;6.25;;;1.10;99.90;;;;;;5063344;28;20466;-64
2023/03/10 05:05:49;;;;;;;13.85;6.68;;;1.10;99.90;;;;;;5069181;28;20127;-64
2023/03/10 05:08:15;;;;;;;10.98;6.10;;;1.10;99.90;;;;;;5070777;28;20047;-64
2023/03/10 05:10:42;;;;;;;10.43;5.65;;;1.10;99.90;;;;;;5067742;28;20037;-64
2023/03/10 05:13:11;;;;;;;9.35;4.63;;;1.10;99.90;;;;;;5073263;28;20050;-63
2023/03/10 05:15:41;;;;;;;11.85;6.45;;;1.10;99.90;;;;;;5074265;28;20547;-63
2023/03/10 05:18:08;;;;;;;7.05;4.70;;;1.10;99.90;;;;;;5048748;28;20127;-63
2023/03/10 05:20:34;;;;;;;10.25;5.63;;;1.10;99.90;;;;;;5047411;28;20128;-63
2023/03/10 05:23:00;;;;;;;12.80;6.25;;;1.10;99.90;;;;;;5049377;28;20036;-63
2023/03/10 05:25:26;;;;;;;9.63;5.90;;;1.10;99.90;;;;;;5054222;28;20454;-63
2023/03/10 05:27:52;;;;;;;10.50;6.25;;;1.10;99.90;;;;;;5055291;28;20052;-63
2023/03/10 05:30:18;;;;;;;9.43;5.40;;;1.10;99.90;;;;;;5069292;28;20106;-64
2023/03/10 05:32:43;;;;;;;10.88;5.72;;;1.10;99.90;;;;;;5070705;28;20104;-64
2023/03/10 05:35:10;;;;;;;11.27;6.13;;;1.10;99.90;;;;;;5090788;28;20032;-63
2023/03/10 05:37:38;;;;;;;11.88;6.63;;;1.10;99.90;;;;;;5053372;28;20098;-63
2023/03/10 05:40:12;;;;;;;13.23;6.82;;;1.10;99.90;;;;;;5081316;28;20035;-64
2023/03/10 05:42:38;;;;;;;12.13;7.15;;;1.10;99.90;;;;;;5078416;28;20036;-64
2023/03/10 05:45:04;;;;;;;10.77;6.13;;;1.10;99.90;;;;;;5087494;28;20040;-64
2023/03/10 05:47:32;;;;;;;9.73;5.90;;;1.10;99.90;;;;;;5051324;28;20073;-64
2023/03/10 05:49:58;;;;;;;8.38;5.20;;;1.10;99.90;;;;;;5051251;28;20255;-64
2023/03/10 05:52:24;;;;;;;11.45;6.40;;;1.10;99.90;;;;;;5064859;28;20162;-64
2023/03/10 05:54:49;;;;;;;11.82;6.88;;;1.10;99.90;;;;;;5090073;28;20036;-64
2023/03/10 05:57:15;;;;;;;10.65;6.05;;;1.10;99.90;;;;;;5082196;28;20103;-63
2023/03/10 05:59:41;;;;;;;12.85;6.55;;;1.10;99.90;;;;;;5087750;28;20032;-63
2023/03/10 06:02:07;;;;;;;11.55;6.43;;;1.10;99.90;;;;;;5091460;28;20113;-63
2023/03/10 06:04:32;;;;;;;12.88;7.32;;;1.10;99.90;;;;;;5069600;28;20114;-63
2023/03/10 06:07:01;;;;;;;11.10;6.32;;;1.10;99.90;;;;;;5069230;28;20044;-63
2023/03/10 06:09:29;;;;;;;9.82;5.75;;;1.10;99.90;;;;;;5071844;28;20119;-63
2023/03/10 06:11:55;;;;;;;12.27;6.75;;;1.10;99.90;;;;;;5076280;28;20044;-63
2023/03/10 06:14:21;;;;;;;11.43;6.30;;;1.10;99.90;;;;;;5079569;28;20071;-63
2023/03/10 06:16:50;;;;;;;12.95;7.97;;;1.10;99.90;;;;;;5071458;28;20117;-63
2023/03/10 06:19:19;;;;;;;10.85;5.78;;;1.10;99.90;;;;;;5068756;28;20043;-64
2023/03/10 06:21:45;;;;;;;13.85;7.57;;;1.10;99.90;;;;;;5068197;28;20036;-63
2023/03/10 06:24:11;;;;;;;12.60;6.57;;;1.10;99.90;;;;;;5075674;28;20085;-63
2023/03/10 06:26:37;;;;;;;9.65;6.03;;;1.10;99.90;;;;;;5070973;28;20052;-63
2023/03/10 06:29:02;;;;;;;9.07;5.30;;;1.10;99.90;;;;;;5080484;28;20039;-63
2023/03/10 06:31:28;;;;;;;10.02;5.93;;;1.10;99.90;;;;;;5056874;28;20052;-63
2023/03/10 06:33:54;;;;;;;14.00;7.97;;;1.00;99.90;;;;;;5071406;28;20044;-63
2023/03/10 06:36:21;;;;;;;14.98;7.57;;;1.10;99.90;;;;;;5084840;28;20566;-63
2023/03/10 06:38:47;;;;;;;11.88;7.10;;;1.10;99.90;;;;;;5085600;28;20047;-63
2023/03/10 06:41:13;;;;;;;11.07;6.15;;;1.10;99.90;;;;;;5054853;28;20036;-63
2023/03/10 06:43:39;;;;;;;13.13;7.43;;;1.10;99.90;;;;;;5081841;28;20464;-63
2023/03/10 06:46:07;;;;;;;12.88;7.18;;;1.10;99.90;;;;;;5061081;28;20132;-63
2023/03/10 06:48:33;;;;;;;13.63;7.57;;;1.10;99.90;;;;;;5073394;28;20413;-63
2023/03/10 06:50:59;;;;;;;11.32;6.47;;;1.20;99.90;;;;;;5076080;28;20032;-63
2023/03/10 06:53:26;;;;;;;12.07;7.40;;;1.20;99.90;;;;;;5067662;28;20034;-63
2023/03/10 06:55:59;;;;;;;15.55;8.18;;;1.20;99.90;;;;;;5067073;28;20078;-63
2023/03/10 06:58:25;;;;;;;12.15;6.03;;;1.20;99.90;;;;;;5084062;28;20040;-63
2023/03/10 07:00:51;;;;;;;14.95;8.35;;;1.20;99.90;;;;;;5075581;28;20098;-63
2023/03/10 07:03:17;;;;;;;12.10;6.13;;;1.20;99.90;;;;;;5071082;28;20047;-63
2023/03/10 07:05:42;;;;;;;13.10;6.97;;;1.20;99.90;;;;;;5086198;28;20066;-63
2023/03/10 07:08:08;;;;;;;11.88;7.43;;;1.20;99.90;;;;;;5076474;28;20078;-63
2023/03/10 07:10:33;;;;;;;14.57;7.50;;;1.20;99.90;;;;;;5072813;28;20032;-63
2023/03/10 07:12:59;;;;;;;14.07;7.60;;;1.20;99.90;;;;;;5069406;28;20406;-63
2023/03/10 07:15:25;;;;;;;15.52;7.55;;;1.30;99.90;;;;;;5073747;28;20367;-63
2023/03/10 07:17:51;;;;;;;16.30;8.32;;;1.20;99.90;;;;;;5074070;28;20033;-63
2023/03/10 07:20:18;;;;;;;16.25;8.50;;;1.20;99.90;;;;;;5066017;28;20508;-63
2023/03/10 07:22:43;;;;;;;16.98;8.50;;;1.20;99.90;;;;;;5082602;28;20024;-63
2023/03/10 07:25:09;;;;;;;18.05;8.57;;;1.30;99.90;;;;;;5072163;28;20035;-63
2023/03/10 07:27:34;;;;;;;17.00;8.90;;;1.30;99.90;;;;;;5077455;28;20081;-63
2023/03/10 07:30:00;;;;;;;18.23;9.45;;;1.30;99.90;;;;;;5052205;28;20086;-63
2023/03/10 07:32:26;;;;;;;18.20;9.73;;;1.30;99.90;;;;;;5072316;28;20029;-63
2023/03/10 07:34:51;;;;;;;18.95;10.43;;;1.30;99.90;;;;;;5075443;28;20037;-63
2023/03/10 07:37:17;;;;;;;19.88;10.77;;;1.30;99.90;;;;;;5063945;28;20055;-63
2023/03/10 07:39:42;;;;;;;20.02;10.23;;;1.30;99.90;;;;;;5073568;28;20066;-63
2023/03/10 07:42:08;;;;;;;18.13;9.38;;;1.30;99.90;;;;;;5071393;28;20681;-63
2023/03/10 07:44:34;;;;;;;14.80;7.45;;;1.30;99.90;;;;;;5067763;28;20037;-63
2023/03/10 07:46:59;;;;;;;21.98;11.45;;;1.30;99.90;;;;;;5061706;28;20561;-63
2023/03/10 07:49:25;;;;;;;14.65;8.13;;;1.30;99.90;;;;;;5065473;28;20114;-64
2023/03/10 07:51:50;;;;;;;16.73;9.20;;;1.30;99.90;;;;;;5054000;28;20442;-63
2023/03/10 07:54:16;;;;;;;21.02;9.80;;;1.30;99.90;;;;;;5059278;28;20047;-63
2023/03/10 07:56:42;;;;;;;19.33;9.93;;;1.30;99.90;;;;;;5058153;28;20083;-64
2023/03/10 07:59:07;;;;;;;24.48;11.60;;;1.40;99.90;;;;;;5069924;28;20180;-63
2023/03/10 08:01:33;;;;;;;20.35;10.80;;;1.30;99.90;;;;;;5072732;28;20424;-63
2023/03/10 08:03:58;;;;;;;17.90;9.32;;;1.40;99.90;;;;;;5070719;28;20035;-63
2023/03/10 08:06:27;;;;;;;21.42;10.68;;;1.40;99.90;;;;;;5072789;28;20611;-63
2023/03/10 08:08:53;;;;;;;21.25;12.02;;;1.40;99.90;;;;;;5070681;28;20043;-63
2023/03/10 08:11:20;;;;;;;24.60;12.50;;;1.40;99.90;;;;;;5062975;28;20042;-63
2023/03/10 08:13:46;;;;;;;21.38;10.85;;;1.40;99.90;;;;;;5054026;28;20055;-63
2023/03/10 08:16:17;;;;;;;22.15;9.75;;;1.40;99.90;;;;;;5057535;28;20032;-63
2023/03/10 08:18:43;;;;;;;15.73;8.77;;;1.40;99.90;;;;;;5065473;28;20116;-63
2023/03/10 08:21:09;;;;;;;18.35;10.20;;;1.40;99.90;;;;;;5070591;28;20107;-63
2023/03/10 08:23:36;;;;;;;20.38;10.52;;;1.40;99.90;;;;;;5055344;28;20573;-63
2023/03/10 08:26:07;;;;;;;23.75;10.27;;;1.40;99.90;;;;;;5076187;28;20040;-63
2023/03/10 08:28:34;;;;;;;16.02;7.93;;;1.40;99.90;;;;;;5083835;28;20094;-63
2023/03/10 08:31:06;;;;;;;20.40;11.07;;;1.40;99.90;;;;;;5076284;28;20059;-63
2023/03/10 08:33:32;;;;;;;20.10;9.80;;;1.50;99.90;;;;;;5077146;28;20035;-63
2023/03/10 08:36:06;;;;;;;17.83;10.20;;;1.40;99.90;;;;;;5070073;28;20037;-62
2023/03/10 08:38:31;;;;;;;21.58;10.23;;;1.50;99.90;;;;;;5058295;28;20060;-63
2023/03/10 08:40:57;;;;;;;18.65;9.73;;;1.50;99.90;;;;;;5075111;28;20040;-63
2023/03/10 08:43:23;;;;;;;19.55;8.85;;;1.50;99.90;;;;;;5075376;28;20036;-63
2023/03/10 08:45:49;;;;;;;17.77;8.60;;;1.50;99.90;;;;;;5069139;28;20047;-63
2023/03/10 08:48:14;;;;;;;19.98;10.00;;;1.50;99.90;;;;;;5068151;28;20398;-62
2023/03/10 08:50:40;;;;;;;15.27;8.73;;;1.50;99.90;;;;;;5067734;28;20514;-63
2023/03/10 08:53:05;;;;;;;17.70;8.50;;;1.50;99.90;;;;;;5071131;28;20405;-63
2023/03/10 08:55:31;;;;;;;16.60;8.57;;;1.60;99.90;;;;;;5068979;28;20068;-62
2023/03/10 08:57:57;;;;;;;13.07;7.63;;;1.60;99.90;;;;;;5071000;28;20048;-62
2023/03/10 09:00:23;;;;;;;16.58;9.05;;;1.50;99.90;;;;;;5071590;28;20047;-62
2023/03/10 09:02:48;;;;;;;14.55;8.45;;;1.50;99.90;;;;;;5070201;28;20040;-62
2023/03/10 09:05:14;;;;;;;19.63;10.40;;;1.60;99.90;;;;;;5055447;28;20039;-63
2023/03/10 09:07:40;;;;;;;16.20;9.07;;;1.60;99.90;;;;;;5051072;28;20094;-62
2023/03/10 09:10:06;;;;;;;17.35;10.40;;;1.60;99.90;;;;;;5050669;28;20037;-62
2023/03/10 09:12:31;;;;;;;18.02;9.48;;;1.60;99.90;;;;;;5051086;28;20146;-62
2023/03/10 09:14:57;;;;;;;16.67;8.77;;;1.60;99.90;;;;;;5051599;28;20127;-62
2023/03/10 09:17:22;;;;;;;19.27;10.45;;;1.60;99.90;;;;;;5066166;28;20050;-62
2023/03/10 09:19:48;;;;;;;17.38;8.73;;;1.60;99.90;;;;;;5068533;28;20110;-62
2023/03/10 09:22:13;;;;;;;18.17;9.95;;;1.60;99.90;;;;;;5070804;28;20037;-62
2023/03/10 09:24:39;;;;;;;15.85;7.80;;;1.60;99.90;;;;;;5069938;28;20032;-62
2023/03/10 09:27:04;;;;;;;17.85;10.20;;;1.60;99.90;;;;;;5087398;28;20119;-62
2023/03/10 09:29:33;;;;;;;17.88;9.45;;;1.60;99.90;;;;;;5088161;28;20115;-62
2023/03/10 09:31:58;;;;;;;18.30;9.70;;;1.60;99.90;;;;;;5053569;28;20048;-62
2023/03/10 09:34:26;;;;;;;16.50;9.02;;;1.60;99.90;;;;;;5070024;28;20505;-62
2023/03/10 09:36:52;;;;;;;18.17;9.32;;;1.60;99.90;;;;;;5032309;28;20384;-62
2023/03/10 09:42:15;;;;;;;17.42;8.80;;;1.60;99.90;;;;;;5586577;22;20249;-61
2023/03/10 09:44:42;;;;;;;15.95;8.38;;;1.70;99.90;;;;;;5044938;28;20041;-63
2023/03/10 09:47:48;;;;;;;18.08;9.18;;;1.60;99.90;;;;;;5050435;28;20055;-62
2023/03/10 09:50:14;;;;;;;16.20;9.02;;;1.60;99.90;;;;;;5041925;28;20075;-62
2023/03/10 09:52:46;;;;;;;17.55;9.25;;;1.60;99.90;;;;;;5046234;28;20142;-62
2023/03/10 09:55:33;;;;;;;19.92;10.20;;;1.60;99.90;;;;;;5035838;28;20369;-62
2023/03/10 09:57:58;;;;;;;19.35;9.70;;;1.70;99.90;;;;;;5045096;28;20049;-62
2023/03/10 10:00:38;;;;;;;19.70;9.68;;;1.70;99.90;;;;;;5042129;28;20044;-62
2023/03/10 10:03:06;;;;;;;17.80;8.18;;;1.70;99.90;;;;;;5042988;28;20048;-62
2023/03/10 10:05:36;;;;;;;17.90;9.25;;;1.70;99.90;;;;;;5043339;28;20087;-61
2023/03/10 10:08:11;;;;;;;19.67;10.15;;;1.70;99.90;;;;;;5050637;28;20029;-62
2023/03/10 10:10:37;;;;;;;18.80;9.68;;;1.70;99.90;;;;;;5038491;28;20044;-62
2023/03/10 10:13:13;;;;;;;20.35;10.00;;;1.60;99.90;;;;;;5037575;28;20517;-62
2023/03/10 10:15:49;;;;;;;15.60;9.00;;;1.70;99.90;;;;;;5036035;28;20049;-62
2023/03/10 10:18:36;;;;;;;20.30;9.52;;;1.70;99.90;;;;;;5045204;28;20132;-62
2023/03/10 10:21:11;;;;;;;21.73;10.52;;;1.60;99.90;;;;;;5047797;28;20481;-62
2023/03/10 10:23:43;;;;;;;16.10;8.77;;;1.70;99.90;;;;;;5045893;28;20044;-61
2023/03/10 10:26:16;;;;;;;22.27;11.90;;;1.70;99.90;;;;;;5044845;28;20375;-63
2023/03/10 10:28:59;;;;;;;21.17;11.48;;;1.70;99.90;;;;;;5047060;28;20041;-62
2023/03/10 10:31:27;;;;;;;19.17;10.43;;;1.70;99.90;;;;;;5042400;28;20049;-62
2023/03/10 10:34:18;;;;;;;22.35;11.48;;;1.70;99.90;;;;;;5043320;28;20032;-63
2023/03/10 10:36:56;;;;;;;18.05;10.35;;;1.70;99.90;;;;;;5040501;28;20041;-62
2023/03/10 10:39:40;;;;;;;20.67;11.40;;;1.70;99.90;;;;;;5055845;28;20028;-62
2023/03/10 10:42:25;;;;;;;18.50;9.50;;;1.70;99.90;;;;;;5051077;28;20108;-62
2023/03/10 10:45:05;;;;;;;17.15;9.85;;;1.70;99.90;;;;;;5038109;28;20033;-62
2023/03/10 10:47:35;;;;;;;17.70;9.63;;;1.70;99.90;;;;;;5049424;28;20040;-62
2023/03/10 10:50:22;;;;;;;21.95;11.63;;;1.70;99.90;;;;;;5048993;28;20120;-62
2023/03/10 10:52:51;;;;;;;18.50;10.10;;;1.70;99.90;;;;;;5038731;28;20046;-63
2023/03/10 10:55:33;;;;;;;23.00;12.57;;;1.70;99.90;;;;;;5050137;28;20090;-62
2023/03/10 10:58:02;;;;;;;21.88;11.65;;;1.70;99.90;;;;;;5032543;28;20133;-62
2023/03/10 11:00:29;;;;;;;25.30;13.52;;;1.60;99.90;;;;;;5037599;28;20032;-63
2023/03/10 11:02:55;;;;;;;25.60;12.88;;;1.70;99.90;;;;;;5040103;28;20051;-63
2023/03/10 11:05:24;;;;;;;23.63;11.77;;;1.70;99.90;;;;;;5040181;28;20116;-62
2023/03/10 11:07:51;;;;;;;23.85;13.10;;;1.70;99.90;;;;;;5050640;28;20037;-63
2023/03/10 11:10:26;;;;;;;25.55;13.05;;;1.70;99.90;;;;;;5048300;28;20033;-63
2023/03/10 11:13:10;;;;;;;23.88;12.25;;;1.70;99.90;;;;;;5051462;28;20060;-62
2023/03/10 11:15:47;;;;;;;21.33;11.13;;;1.70;99.90;;;;;;5051157;28;20094;-62
2023/03/10 11:18:22;;;;;;;22.33;10.90;;;1.70;99.90;;;;;;5043469;28;20071;-62
2023/03/10 11:21:12;;;;;;;17.70;10.20;;;1.70;99.90;;;;;;5046840;28;20398;-63
2023/03/10 11:23:47;;;;;;;20.80;10.48;;;1.70;99.90;;;;;;5043705;28;20079;-63
2023/03/10 11:26:45;;;;;;;24.65;14.18;;;1.70;99.90;;;;;;5044886;28;20064;-63
2023/03/10 11:29:29;;;;;;;23.38;11.75;;;1.60;99.90;;;;;;5050237;28;20071;-62
2023/03/10 11:32:00;;;;;;;21.65;11.82;;;1.60;99.90;;;;;;5047440;28;20124;-62
2023/03/10 11:34:31;;;;;;;18.98;9.65;;;1.60;99.90;;;;;;5051818;28;20041;-62
2023/03/10 11:37:20;;;;;;;24.42;11.73;;;1.60;99.90;;;;;;5053494;28;20163;-62
2023/03/10 11:40:18;;;;;;;18.65;10.57;;;1.60;99.90;;;;;;5049024;28;20056;-62
2023/03/10 11:42:56;;;;;;;19.05;10.65;;;1.50;99.90;;;;;;5046664;28;20062;-62
2023/03/10 11:45:40;;;;;;;21.63;11.13;;;1.50;99.90;;;;;;5050686;28;20459;-63
2023/03/10 11:48:35;;;;;;;17.63;10.55;;;1.50;99.90;;;;;;5050990;28;20095;-62
2023/03/10 11:51:05;;;;;;;19.25;9.85;;;1.60;99.90;;;;;;5049837;28;20029;-63
2023/03/10 11:53:44;;;;;;;14.95;9.45;;;1.50;99.90;;;;;;5051101;28;20417;-62
2023/03/10 11:56:13;;;;;;;20.33;11.20;;;1.60;99.90;;;;;;5048199;28;20040;-62
2023/03/10 11:58:44;;;;;;;16.80;9.00;;;1.60;99.90;;;;;;5048394;28;20508;-63
2023/03/10 12:01:27;;;;;;;19.85;10.80;;;1.60;99.90;;;;;;5051067;28;20482;-63
2023/03/10 12:04:30;;;;;;;21.30;11.55;;;1.70;99.90;;;;;;5045702;28;20048;-62
2023/03/10 12:07:20;;;;;;;19.10;10.38;;;1.70;99.90;;;;;;5042337;28;20076;-64
2023/03/10 12:09:50;;;;;;;18.35;9.93;;;1.70;99.90;;;;;;5047986;28;20044;-62
2023/03/10 12:12:42;;;;;;;19.55;10.13;;;1.70;99.90;;;;;;5047385;28;20037;-63
2023/03/10 12:15:23;;;;;;;24.52;11.77;;;1.70;99.90;;;;;;5048081;28;20041;-62
2023/03/10 12:17:51;;;;;;;18.08;9.43;;;1.70;99.90;;;;;;5053625;28;20048;-63
2023/03/10 12:20:16;;;;;;;17.35;9.85;;;1.70;99.90;;;;;;5041752;28;20540;-63
2023/03/10 12:23:18;;;;;;;18.65;10.00;;;1.70;99.90;;;;;;5047618;28;20334;-63
2023/03/10 12:25:44;;;;;;;21.23;11.10;;;1.70;99.90;;;;;;5026084;28;20048;-63
2023/03/10 12:28:16;;;;;;;22.20;11.43;;;1.70;99.90;;;;;;5053208;28;20397;-63
2023/03/10 12:30:42;;;;;;;;;;;1.70;99.90;;;;;;5053108;28;20049;-63
2023/03/10 12:33:32;;;;;;;20.58;9.88;;;1.70;99.90;;;;;;5053565;28;19916;-63
2023/03/10 12:36:01;;;;;;;14.77;8.13;;;1.70;99.90;;;;;;5051810;28;20041;-63
2023/03/10 12:38:56;;;;;;;18.35;9.90;;;1.70;99.90;;;;;;5052420;28;20112;-63
2023/03/10 12:41:27;;;;;;;19.30;9.52;;;1.60;99.90;;;;;;5049455;28;20071;-63
2023/03/10 12:44:11;;;;;;;20.92;10.35;;;1.60;99.90;;;;;;5051147;28;20087;-63
2023/03/10 12:47:00;;;;;;;22.85;11.68;;;1.60;99.90;;;;;;5051830;28;20036;-63
2023/03/10 12:49:41;;;;;;;18.92;8.75;;;1.60;99.90;;;;;;5047282;28;20121;-63
2023/03/10 12:52:30;;;;;;;20.70;10.50;;;1.60;99.90;;;;;;5049458;28;20059;-63
2023/03/10 12:55:04;;;;;;;20.40;10.52;;;1.50;99.90;;;;;;5048839;28;20044;-62
2023/03/10 12:57:43;;;;;;;19.85;11.82;;;1.50;99.90;;;;;;5048772;28;20103;-63
2023/03/10 13:00:28;;;;;;;19.10;10.52;;;1.50;99.90;;;;;;5049649;28;20040;-63
2023/03/10 13:03:04;;;;;;;21.95;11.27;;;1.50;99.90;;;;;;5039538;28;20049;-63